Time;durP1;ratioP1;P1;durP2;ratioP2;P2;SDS_P1;SDS_P2;PMS_P1;PMS_P2;Temp;Humidity;BMP_temperature;BMP_pressure;BME280_temperature;BME280_humidity;BME280_pressure;Samples;Min_cycle;Max_cycle;Signal;HPM_P1;HPM_P2
2021/12/25 00:02:08;;;;;;;25.30;9.50;;;-4.60;99.90;-5.80;98816;;;;574858;246;24090;-72
2021/12/25 00:04:34;;;;;;;19.33;7.33;;;-4.60;99.90;-5.80;98821;;;;570983;246;24130;-77
2021/12/25 00:07:03;;;;;;;15.07;6.23;;;-4.70;99.90;-5.90;98831;;;;574097;246;24127;-71
2021/12/25 00:09:32;;;;;;;8.53;4.13;;;-4.70;99.90;-5.90;98824;;;;563852;245;24137;-71
2021/12/25 00:12:00;;;;;;;10.17;4.70;;;-4.70;99.90;-5.90;98833;;;;562136;251;24119;-71
2021/12/25 00:14:28;;;;;;;6.40;4.10;;;-4.70;99.90;-5.90;98841;;;;562736;251;24108;-71
2021/12/25 00:16:58;;;;;;;7.97;3.93;;;-4.70;99.90;-6.00;98834;;;;562847;250;24141;-72
2021/12/25 00:19:27;;;;;;;8.17;4.40;;;-4.80;99.90;-6.00;98847;;;;562646;250;24117;-73
2021/12/25 00:21:52;;;;;;;6.60;4.27;;;-4.80;99.90;-6.00;98848;;;;569491;251;24110;-72
2021/12/25 00:24:21;;;;;;;7.73;5.27;;;-4.80;99.90;-6.00;98851;;;;570977;251;24160;-75
2021/12/25 00:27:04;;;;;;;7.50;5.50;;;-4.80;99.90;-6.10;98856;;;;546274;258;24218;-73
2021/12/25 00:34:51;;;;;;;6.37;4.70;;;-4.90;99.90;-6.20;98870;;;;561889;251;24108;-76
2021/12/25 00:37:19;;;;;;;8.43;5.00;;;-5.00;99.90;-6.20;98875;;;;561983;251;24110;-73
2021/12/25 00:39:47;;;;;;;6.93;4.73;;;-5.00;99.90;-6.20;98873;;;;561534;251;24140;-77
2021/12/25 00:42:16;;;;;;;5.03;3.73;;;-5.00;99.90;-6.20;98884;;;;568023;250;24143;-76
2021/12/25 00:44:43;;;;;;;5.87;3.70;;;-5.10;99.90;-6.30;98875;;;;556472;252;24108;-76
2021/12/25 00:47:11;;;;;;;5.17;3.60;;;-5.10;99.90;-6.30;98873;;;;562323;251;24096;-79
2021/12/25 00:49:39;;;;;;;4.20;3.30;;;-5.10;99.90;-6.30;98883;;;;560849;251;24133;-77
2021/12/25 00:52:08;;;;;;;5.50;3.50;;;-5.10;99.90;-6.30;98891;;;;571898;250;24143;-74
2021/12/25 00:54:35;;;;;;;5.23;3.27;;;-5.10;99.90;-6.30;98889;;;;561613;250;24090;-78
2021/12/25 00:57:03;;;;;;;3.47;2.93;;;-5.10;99.90;-6.40;98887;;;;558733;252;24116;-79
2021/12/25 00:59:31;;;;;;;4.50;2.97;;;-5.20;99.90;-6.40;98903;;;;561798;249;24091;-78
2021/12/25 01:01:59;;;;;;;3.70;2.97;;;-5.20;99.90;-6.40;98911;;;;561983;249;24091;-76
2021/12/25 01:04:27;;;;;;;4.90;2.90;;;-5.20;99.90;-6.40;98907;;;;558737;251;24131;-79
2021/12/25 01:06:56;;;;;;;4.77;3.10;;;-5.30;99.90;-6.50;98915;;;;562019;249;24136;-80
2021/12/25 01:09:28;;;;;;;4.47;3.07;;;-5.30;99.90;-6.50;98921;;;;563138;249;24102;-73
2021/12/25 01:11:56;;;;;;;4.27;3.00;;;-5.30;99.90;-6.50;98921;;;;562715;251;24141;-75
2021/12/25 01:14:39;;;;;;;4.47;3.07;;;-5.30;99.90;-6.50;98928;;;;562874;251;24116;-75
2021/12/25 01:17:24;;;;;;;4.10;3.20;;;-5.30;99.90;-6.50;98931;;;;562677;251;24136;-75
2021/12/25 01:25:16;;;;;;;4.67;2.23;;;-5.40;99.90;-6.60;98945;;;;563238;251;24122;-78
2021/12/25 01:30:11;;;;;;;3.93;2.30;;;-5.40;99.90;-6.60;98948;;;;563307;251;24093;-78
2021/12/25 01:33:03;;;;;;;3.47;2.47;;;-5.40;99.90;-6.60;98954;;;;554699;255;24030;-76
2021/12/25 01:35:32;;;;;;;2.77;2.10;;;-5.40;99.90;-6.60;98967;;;;555449;254;24037;-75
2021/12/25 01:37:59;;;;;;;2.23;2.03;;;-5.40;99.90;-6.60;98964;;;;541537;261;24182;-79
2021/12/25 01:48:20;;;;;;;2.47;1.90;;;-5.50;99.90;-6.60;98983;;;;556113;254;24010;-76
2021/12/25 01:50:49;;;;;;;3.43;2.07;;;-5.50;99.90;-6.60;98978;;;;556021;254;24065;-75
2021/12/25 01:53:17;;;;;;;3.70;2.30;;;-5.40;99.90;-6.70;98991;;;;555924;254;24027;-75
2021/12/25 01:55:45;;;;;;;5.90;2.93;;;-5.50;99.90;-6.60;98993;;;;555838;253;28364;-76
2021/12/25 01:58:13;;;;;;;4.90;2.63;;;-5.40;99.90;-6.60;98990;;;;555880;253;24018;-75
2021/12/25 02:00:44;;;;;;;4.47;2.63;;;-5.40;99.90;-6.60;99001;;;;555688;253;24033;-74
2021/12/25 02:03:13;;;;;;;4.03;2.30;;;-5.40;99.90;-6.60;99000;;;;564059;250;24028;-77
2021/12/25 02:05:41;;;;;;;2.47;1.80;;;-5.50;99.90;-6.60;98998;;;;564357;253;24032;-73
2021/12/25 02:08:08;;;;;;;2.72;2.00;;;-5.40;99.90;-6.60;99004;;;;551037;253;45421;-73
2021/12/25 02:10:36;;;;;;;3.27;1.80;;;-5.40;99.90;-6.60;99003;;;;564178;253;24044;-76
2021/12/25 02:13:04;;;;;;;2.33;1.90;;;-5.40;99.90;-6.60;99003;;;;563957;253;24018;-75
2021/12/25 02:15:33;;;;;;;2.40;1.70;;;-5.40;99.90;-6.60;99008;;;;564095;253;24027;-74
2021/12/25 02:18:10;;;;;;;1.67;1.53;;;-5.40;99.90;-6.60;99013;;;;563700;254;24037;-73
2021/12/25 02:20:32;;;;;;;3.40;1.73;;;-5.40;99.90;-6.60;99014;;;;563909;253;24054;-77
2021/12/25 02:23:02;;;;;;;2.23;1.63;;;-5.40;99.90;-6.60;99018;;;;563577;254;24069;-73
2021/12/25 02:25:25;;;;;;;1.90;1.60;;;-5.40;99.90;-6.60;99020;;;;563821;254;24019;-73
2021/12/25 02:27:52;;;;;;;3.37;1.60;;;-5.40;99.90;-6.50;99014;;;;563352;255;24020;-75
2021/12/25 02:30:23;;;;;;;3.17;1.60;;;-5.40;99.90;-6.50;99018;;;;554941;255;24015;-75
2021/12/25 02:32:49;;;;;;;1.50;1.40;;;-5.40;99.90;-6.50;99015;;;;555071;255;24031;-78
2021/12/25 02:35:17;;;;;;;2.57;1.90;;;-5.40;99.90;-6.60;99028;;;;554975;255;24028;-75
2021/12/25 02:37:45;;;;;;;1.83;1.63;;;-5.40;99.90;-6.50;99026;;;;563548;252;24077;-75
2021/12/25 02:40:16;;;;;;;2.50;1.60;;;-5.40;99.90;-6.60;99027;;;;555398;255;24002;-73
2021/12/25 02:42:43;;;;;;;3.80;1.80;;;-5.40;99.90;-6.60;99031;;;;549898;255;24038;-73
2021/12/25 02:45:15;;;;;;;3.03;1.80;;;-5.40;99.90;-6.60;99033;;;;555312;255;24022;-72
2021/12/25 02:47:42;;;;;;;2.90;1.97;;;-5.40;99.90;-6.60;99036;;;;555251;255;24026;-73
2021/12/25 02:50:07;;;;;;;1.90;1.67;;;-5.40;99.90;-6.60;99047;;;;555360;255;24023;-74
2021/12/25 02:52:36;;;;;;;2.67;1.70;;;-5.40;99.90;-6.60;99032;;;;557836;249;24063;-73
2021/12/25 02:55:00;;;;;;;1.80;1.70;;;-5.40;99.90;-6.60;99031;;;;566692;249;24097;-72
2021/12/25 02:57:28;;;;;;;1.67;1.57;;;-5.40;99.90;-6.60;99028;;;;566260;250;24296;-73
2021/12/25 02:59:56;;;;;;;1.83;1.73;;;-5.40;99.90;-6.60;99043;;;;566150;250;24083;-74
2021/12/25 03:02:24;;;;;;;1.40;1.30;;;-5.40;99.90;-6.60;99037;;;;565941;250;25133;-74
2021/12/25 03:04:52;;;;;;;2.23;1.47;;;-5.40;99.90;-6.60;99053;;;;566342;250;24093;-74
2021/12/25 03:07:20;;;;;;;2.00;1.40;;;-5.40;99.90;-6.60;99054;;;;565669;250;24149;-74
2021/12/25 03:09:48;;;;;;;1.77;1.67;;;-5.40;99.90;-6.60;99059;;;;565491;250;24093;-74
2021/12/25 03:12:23;;;;;;;1.67;1.53;;;-5.40;99.90;-6.60;99061;;;;565219;250;24070;-74
2021/12/25 03:15:06;;;;;;;1.60;1.23;;;-5.40;99.90;-6.60;99060;;;;565341;250;24110;-74
2021/12/25 03:17:32;;;;;;;2.97;1.60;;;-5.50;99.90;-6.60;99068;;;;574336;250;24089;-73
2021/12/25 03:19:58;;;;;;;2.43;1.50;;;-5.40;99.90;-6.60;99072;;;;565420;250;24093;-73
2021/12/25 03:22:25;;;;;;;1.43;1.10;;;-5.50;99.90;-6.60;99065;;;;565639;250;24100;-73
2021/12/25 03:24:53;;;;;;;2.03;1.53;;;-5.50;99.90;-6.60;99066;;;;565740;250;24085;-73
2021/12/25 03:27:22;;;;;;;2.07;1.30;;;-5.40;99.90;-6.60;99073;;;;565210;250;24102;-74
2021/12/25 03:29:51;;;;;;;2.00;1.50;;;-5.40;99.90;-6.60;99058;;;;555724;254;24108;-73
2021/12/25 03:32:18;;;;;;;2.37;1.63;;;-5.40;99.90;-6.60;99076;;;;555130;254;24010;-74
2021/12/25 03:34:46;;;;;;;2.67;1.70;;;-5.40;99.90;-6.60;99075;;;;563756;253;24069;-75
2021/12/25 03:37:14;;;;;;;1.70;1.60;;;-5.40;99.90;-6.60;99076;;;;563868;253;24018;-79
2021/12/25 03:39:42;;;;;;;2.07;1.70;;;-5.40;99.90;-6.50;99086;;;;564272;253;24021;-76
2021/12/25 03:42:10;;;;;;;2.43;1.87;;;-5.40;99.90;-6.50;99082;;;;564208;253;24028;-77
2021/12/25 03:44:38;;;;;;;2.70;2.00;;;-5.40;99.90;-6.50;99082;;;;564176;253;24040;-76
2021/12/25 03:47:24;;;;;;;2.63;2.13;;;-5.30;99.90;-6.50;99089;;;;564194;253;24070;-77
2021/12/25 03:58:02;;;;;;;1.80;1.60;;;-5.30;99.90;-6.50;99098;;;;564173;254;24081;-78
2021/12/25 04:00:30;;;;;;;1.70;1.60;;;-5.30;99.90;-6.40;99100;;;;564216;253;24051;-77
2021/12/25 04:03:01;;;;;;;1.40;1.30;;;-5.30;99.90;-6.40;99102;;;;564018;254;24027;-76
2021/12/25 04:05:30;;;;;;;1.57;1.40;;;-5.20;99.90;-6.30;99110;;;;571212;249;24114;-78
2021/12/25 04:08:07;;;;;;;1.57;1.47;;;-5.20;99.90;-6.20;99117;;;;564148;250;24189;-73
2021/12/25 04:10:35;;;;;;;1.67;1.57;;;-5.10;99.90;-6.10;99113;;;;560784;252;24128;-78
2021/12/25 04:13:02;;;;;;;2.00;1.60;;;-5.00;99.90;-6.10;99121;;;;559788;252;24128;-76
2021/12/25 04:15:30;;;;;;;2.07;1.60;;;-4.90;99.90;-6.00;99118;;;;568262;252;24188;-76
2021/12/25 04:17:58;;;;;;;2.23;1.80;;;-4.80;99.90;-5.90;99118;;;;560246;251;24191;-75
2021/12/25 04:20:27;;;;;;;2.33;1.60;;;-4.70;99.90;-5.90;99114;;;;555285;251;35575;-73
2021/12/25 04:23:00;;;;;;;1.90;1.43;;;-4.70;99.90;-5.80;99120;;;;560042;252;24132;-73
2021/12/25 04:25:27;;;;;;;1.40;1.30;;;-4.70;99.90;-5.80;99126;;;;559598;252;24156;-75
2021/12/25 04:27:50;;;;;;;1.37;1.27;;;-4.60;99.90;-5.80;99121;;;;559381;252;24119;-74
2021/12/25 04:30:30;;;;;;;1.57;1.07;;;-4.60;99.90;-5.90;99123;;;;559950;250;24115;-73
2021/12/25 05:02:53;;;;;;;2.97;1.70;;;-4.40;99.90;-5.50;99143;;;;566498;252;24142;-73
2021/12/25 05:05:03;;;;;;;1.50;1.40;;;-4.40;99.90;-5.40;99141;;;;563471;251;24107;-74
2021/12/25 05:07:28;;;;;;;2.20;1.30;;;-4.30;99.90;-5.40;99147;;;;563463;250;24184;-76
2021/12/25 05:09:58;;;;;;;2.60;1.40;;;-4.30;99.90;-5.40;99143;;;;563402;250;24064;-75
2021/12/25 05:12:24;;;;;;;1.17;1.10;;;-4.20;99.90;-5.30;99147;;;;563271;250;24118;-73
2021/12/25 05:14:52;;;;;;;0.98;0.98;;;-4.20;99.90;-5.30;99133;;;;555665;250;46251;-74
2021/12/25 05:17:20;;;;;;;4.67;1.50;;;-4.20;99.90;-5.30;99137;;;;564757;249;24135;-73
2021/12/25 05:19:48;;;;;;;1.50;1.40;;;-4.10;99.90;-5.30;99147;;;;564189;249;24099;-74
2021/12/25 05:22:17;;;;;;;1.87;1.30;;;-4.10;99.90;-5.20;99140;;;;564108;249;24096;-73
2021/12/25 05:24:43;;;;;;;2.63;1.40;;;-4.10;99.90;-5.20;99149;;;;561670;251;25135;-72
2021/12/25 05:27:13;;;;;;;3.67;1.60;;;-4.00;99.90;-5.10;99152;;;;560233;251;24122;-73
2021/12/25 05:29:41;;;;;;;2.13;1.73;;;-4.00;99.90;-5.20;99151;;;;559398;253;24005;-73
2021/12/25 05:32:07;;;;;;;3.43;1.80;;;-4.00;99.90;-5.10;99151;;;;565783;250;24025;-75
2021/12/25 05:34:36;;;;;;;2.07;1.47;;;-3.90;99.90;-5.10;99162;;;;565819;248;24042;-73
2021/12/25 05:37:05;;;;;;;2.47;1.43;;;-3.90;99.90;-5.00;99155;;;;565703;249;24065;-71
2021/12/25 05:39:32;;;;;;;1.50;1.37;;;-3.90;99.90;-5.00;99155;;;;565745;248;24014;-72
2021/12/25 05:42:00;;;;;;;2.70;1.47;;;-3.90;99.90;-5.00;99157;;;;566032;247;24084;-72
2021/12/25 05:44:32;;;;;;;1.67;1.10;;;-3.80;99.90;-4.90;99160;;;;565984;248;23987;-72
2021/12/25 05:46:56;;;;;;;1.30;1.00;;;-3.80;99.90;-4.90;99164;;;;560315;250;24059;-73
2021/12/25 05:49:24;;;;;;;1.47;1.37;;;-3.80;99.90;-4.90;99169;;;;566062;249;24068;-75
2021/12/25 05:51:53;;;;;;;1.53;1.10;;;-3.80;99.90;-5.00;99170;;;;565873;248;24014;-76
2021/12/25 05:54:21;;;;;;;1.77;1.47;;;-3.80;99.90;-5.00;99163;;;;565757;249;25025;-75
2021/12/25 05:56:48;;;;;;;2.23;1.10;;;-3.80;99.90;-5.00;99167;;;;565809;248;24023;-74
2021/12/25 05:59:16;;;;;;;2.77;1.40;;;-3.90;99.90;-5.10;99174;;;;565768;248;24005;-74
2021/12/25 06:01:45;;;;;;;0.90;0.90;;;-3.90;99.90;-5.10;99171;;;;565831;248;24030;-73
2021/12/25 06:04:14;;;;;;;0.90;0.90;;;-4.00;99.90;-5.20;99184;;;;565751;248;24025;-73
2021/12/25 06:06:42;;;;;;;1.10;1.10;;;-4.00;99.90;-5.20;99185;;;;565101;248;24099;-74
2021/12/25 06:09:10;;;;;;;1.57;0.93;;;-4.00;99.90;-5.20;99181;;;;563680;251;24149;-74
2021/12/25 06:11:37;;;;;;;1.77;1.27;;;-4.10;99.90;-5.20;99171;;;;563398;251;24083;-73
2021/12/25 06:14:11;;;;;;;1.53;0.97;;;-4.10;99.90;-5.20;99174;;;;559793;252;24205;-74
2021/12/25 06:16:37;;;;;;;1.30;0.87;;;-4.10;99.90;-5.30;99191;;;;559521;252;24134;-74
2021/12/25 06:19:09;;;;;;;3.00;2.10;;;-4.20;99.90;-5.30;99179;;;;559667;252;24124;-74
2021/12/25 06:21:34;;;;;;;2.53;1.50;;;-4.20;99.90;-5.30;99180;;;;559135;252;24167;-72
2021/12/25 06:24:04;;;;;;;1.70;1.30;;;-4.20;99.90;-5.30;99181;;;;559555;252;24118;-73
2021/12/25 06:26:30;;;;;;;3.00;1.50;;;-4.20;99.90;-5.40;99188;;;;559784;250;24119;-74
2021/12/25 06:28:58;;;;;;;3.87;1.60;;;-4.20;99.90;-5.40;99184;;;;561038;251;24122;-77
2021/12/25 06:31:27;;;;;;;2.17;1.40;;;-4.30;99.90;-5.40;99179;;;;560934;250;24146;-75
2021/12/25 06:33:58;;;;;;;2.27;1.40;;;-4.30;99.90;-5.40;99192;;;;560443;251;24098;-73
2021/12/25 06:36:22;;;;;;;1.83;1.33;;;-4.30;99.90;-5.40;99189;;;;558569;253;24228;-73
2021/12/25 06:38:50;;;;;;;2.00;1.30;;;-4.30;99.90;-5.50;99196;;;;555936;258;24049;-73
2021/12/25 06:41:18;;;;;;;2.83;2.00;;;-4.30;99.90;-5.50;99200;;;;548166;256;24181;-75
2021/12/25 06:43:46;;;;;;;2.77;1.97;;;-4.40;99.90;-5.50;99207;;;;556264;258;24068;-74
2021/12/25 06:46:14;;;;;;;2.50;1.93;;;-4.40;99.90;-5.50;99194;;;;548356;256;24157;-73
2021/12/25 06:48:42;;;;;;;1.97;1.70;;;-4.40;99.90;-5.50;99198;;;;547939;258;24066;-73
2021/12/25 06:51:10;;;;;;;3.17;1.87;;;-4.40;99.90;-5.50;99209;;;;548391;256;24176;-74
2021/12/25 06:53:38;;;;;;;3.13;2.17;;;-4.40;99.90;-5.50;99203;;;;565952;250;24100;-73
2021/12/25 06:56:06;;;;;;;1.77;1.60;;;-4.40;99.90;-5.50;99208;;;;565599;250;24134;-74
2021/12/25 06:58:34;;;;;;;2.50;1.50;;;-4.40;99.90;-5.40;99214;;;;561102;249;46186;-78
2021/12/25 07:01:01;;;;;;;3.00;1.30;;;-4.30;99.90;-5.40;99217;;;;565591;250;24077;-76
2021/12/25 07:03:29;;;;;;;1.67;1.30;;;-4.30;99.90;-5.40;99212;;;;565831;250;24094;-77
2021/12/25 07:05:58;;;;;;;3.87;2.03;;;-4.20;99.90;-5.30;99216;;;;563721;250;24101;-77
2021/12/25 07:08:27;;;;;;;2.50;1.90;;;-4.10;99.90;-5.20;99217;;;;554911;251;35503;-74
2021/12/25 07:10:55;;;;;;;2.87;1.70;;;-4.20;99.90;-5.20;99233;;;;555186;251;35566;-76
2021/12/25 07:13:23;;;;;;;0.90;0.70;;;-4.10;99.90;-5.10;99227;;;;560058;251;24145;-78
2021/12/25 07:15:50;;;;;;;3.07;1.80;;;-4.00;99.90;-5.10;99228;;;;560019;250;24147;-76
2021/12/25 07:18:19;;;;;;;3.20;1.80;;;-3.90;99.90;-5.10;99217;;;;560057;252;24183;-76
2021/12/25 07:20:48;;;;;;;2.60;1.77;;;-3.90;99.90;-5.00;99224;;;;560064;252;24153;-77
2021/12/25 07:23:18;;;;;;;3.50;2.20;;;-3.80;99.90;-5.00;99224;;;;559895;254;24160;-78
2021/12/25 07:25:46;;;;;;;3.07;2.33;;;-3.80;99.90;-5.00;99224;;;;551861;256;24148;-77
2021/12/25 07:28:14;;;;;;;2.63;2.13;;;-3.80;99.90;-5.00;99223;;;;555283;256;24118;-76
2021/12/25 07:30:41;;;;;;;5.10;2.60;;;-3.80;99.90;-5.00;99235;;;;559406;252;24141;-78
2021/12/25 07:33:09;;;;;;;4.53;2.07;;;-3.90;99.90;-5.10;99235;;;;560043;251;25158;-77
2021/12/25 07:35:38;;;;;;;2.20;1.87;;;-3.90;99.90;-5.10;99230;;;;561837;252;25176;-74
2021/12/25 07:38:06;;;;;;;2.63;2.43;;;-3.90;99.90;-5.20;99238;;;;560126;249;24087;-77
2021/12/25 07:40:34;;;;;;;2.78;2.40;;;-4.00;99.90;-5.20;99236;;;;555785;252;34406;-74
2021/12/25 07:43:02;;;;;;;3.27;1.90;;;-4.00;99.90;-5.30;99235;;;;566712;247;23999;-77
2021/12/25 07:45:30;;;;;;;4.10;3.00;;;-4.10;99.90;-5.30;99236;;;;566164;247;24029;-76
2021/12/25 07:48:01;;;;;;;3.50;2.13;;;-4.10;99.90;-5.30;99234;;;;574960;247;25005;-75
2021/12/25 07:50:27;;;;;;;4.80;2.73;;;-4.10;99.90;-5.30;99223;;;;566238;249;24071;-74
2021/12/25 07:52:55;;;;;;;4.37;2.90;;;-4.20;99.90;-5.30;99229;;;;566206;250;24004;-74
2021/12/25 07:55:22;;;;;;;4.23;2.73;;;-4.20;99.90;-5.30;99223;;;;566287;249;23969;-73
2021/12/25 07:57:54;;;;;;;7.13;4.50;;;-4.20;99.90;-5.30;99221;;;;565977;250;24078;-72
2021/12/25 08:00:18;;;;;;;6.97;3.23;;;-4.20;99.90;-5.30;99223;;;;565822;250;24107;-72
2021/12/25 08:02:46;;;;;;;5.07;3.40;;;-4.20;99.90;-5.30;99235;;;;565948;250;23991;-72
2021/12/25 08:05:15;;;;;;;4.03;3.27;;;-4.10;99.90;-5.30;99233;;;;563005;250;24015;-73
2021/12/25 08:07:43;;;;;;;3.07;2.33;;;-4.20;99.90;-5.30;99238;;;;565849;249;24000;-74
2021/12/25 08:10:14;;;;;;;4.03;2.20;;;-4.10;99.90;-5.20;99252;;;;565617;248;24006;-77
2021/12/25 08:12:53;;;;;;;2.00;1.90;;;-4.10;99.90;-5.10;99251;;;;566022;250;24007;-72
2021/12/25 08:15:21;;;;;;;2.90;1.73;;;-4.00;99.90;-5.10;99248;;;;565858;248;23995;-71
2021/12/25 08:17:49;;;;;;;4.30;2.30;;;-4.00;99.90;-5.10;99266;;;;565754;249;24004;-72
2021/12/25 08:20:18;;;;;;;3.70;2.30;;;-3.90;99.90;-5.10;99267;;;;565845;248;24048;-72
2021/12/25 08:22:45;;;;;;;4.20;2.43;;;-3.90;99.90;-5.00;99266;;;;564264;251;24094;-72
2021/12/25 08:25:13;;;;;;;4.17;2.10;;;-3.90;99.90;-4.80;99270;;;;559140;251;24088;-72
2021/12/25 08:27:41;;;;;;;4.30;3.00;;;-3.70;99.90;-4.70;99273;;;;559975;252;24130;-73
2021/12/25 08:30:10;;;;;;;2.87;2.30;;;-3.50;99.90;-4.60;99275;;;;563084;252;24163;-76
2021/12/25 08:32:38;;;;;;;4.83;2.97;;;-3.50;99.90;-4.60;99289;;;;559494;252;24130;-77
2021/12/25 08:35:10;;;;;;;3.53;2.35;;;-3.40;99.90;-4.50;99283;;;;556527;252;35392;-72
2021/12/25 08:37:34;;;;;;;3.67;2.00;;;-3.30;99.90;-4.40;99289;;;;569476;248;24119;-73
2021/12/25 08:40:02;;;;;;;5.13;3.23;;;-3.20;99.90;-4.30;99284;;;;561550;252;24117;-72
2021/12/25 08:42:30;;;;;;;5.33;3.60;;;-3.10;99.90;-4.30;99274;;;;559686;252;24156;-72
2021/12/25 08:47:28;;;;;;;5.67;3.70;;;-3.00;99.90;-4.20;99283;;;;561270;252;24103;-73
2021/12/25 08:49:56;;;;;;;5.90;3.40;;;-3.00;99.90;-4.30;99290;;;;559564;250;24197;-73
2021/12/25 08:52:29;;;;;;;5.83;3.30;;;-3.00;99.90;-4.30;99305;;;;565120;251;24162;-74
2021/12/25 08:54:53;;;;;;;8.30;3.83;;;-3.10;99.90;-4.20;99299;;;;560506;252;24123;-72
2021/12/25 08:57:21;;;;;;;4.27;2.63;;;-3.00;99.90;-4.20;99296;;;;560373;251;24178;-72
2021/12/25 08:59:51;;;;;;;4.53;3.57;;;-3.00;99.90;-4.10;99297;;;;568668;247;24140;-73
2021/12/25 09:02:17;;;;;;;4.33;2.40;;;-2.90;99.90;-4.00;99300;;;;559917;252;24160;-73
2021/12/25 09:04:44;;;;;;;2.93;2.30;;;-2.90;99.90;-4.00;99298;;;;560175;252;24121;-75
2021/12/25 09:07:17;;;;;;;3.17;2.30;;;-2.80;99.90;-3.90;99310;;;;560167;252;24179;-72
2021/12/25 09:09:45;;;;;;;3.73;3.00;;;-2.80;99.90;-3.80;99312;;;;559859;252;24119;-72
2021/12/25 09:14:50;;;;;;;5.20;2.80;;;-2.30;99.90;-3.50;99319;;;;589190;244;24088;-79
2021/12/25 09:17:18;;;;;;;3.00;2.23;;;-2.40;99.90;-3.40;99321;;;;579491;244;24082;-74
2021/12/25 09:19:46;;;;;;;2.47;2.17;;;-2.30;99.90;-3.30;99321;;;;579383;244;24055;-75
2021/12/25 09:22:14;;;;;;;4.53;2.07;;;-2.20;99.90;-3.20;99316;;;;576634;244;24099;-73
2021/12/25 09:24:46;;;;;;;2.33;1.70;;;-1.90;99.90;-3.10;99312;;;;579111;244;24070;-76
2021/12/25 09:27:10;;;;;;;1.80;1.50;;;-1.90;99.90;-3.00;99322;;;;571949;244;24010;-75
2021/12/25 09:29:38;;;;;;;1.97;1.50;;;-1.80;99.90;-2.90;99320;;;;561358;251;24183;-75
2021/12/25 09:32:06;;;;;;;1.47;1.30;;;-1.70;99.90;-2.80;99314;;;;583536;241;24083;-73
2021/12/25 09:34:34;;;;;;;2.53;1.93;;;-1.50;99.90;-2.60;99319;;;;560234;252;24242;-73
2021/12/25 09:37:02;;;;;;;1.97;1.83;;;-1.40;99.90;-2.50;99315;;;;580479;244;24069;-73
2021/12/25 09:39:31;;;;;;;3.17;2.27;;;-1.20;99.90;-2.40;99332;;;;563482;250;24082;-73
2021/12/25 09:41:58;;;;;;;3.00;2.40;;;-1.10;99.90;-2.30;99327;;;;557122;249;24108;-76
2021/12/25 09:44:27;;;;;;;2.47;2.10;;;-1.00;99.90;-2.30;99333;;;;574908;245;24065;-75
2021/12/25 09:46:54;;;;;;;3.80;2.80;;;-1.00;99.90;-2.20;99325;;;;576172;244;24079;-72
2021/12/25 09:49:26;;;;;;;3.23;2.73;;;-0.90;99.90;-2.20;99338;;;;576536;244;24071;-72
2021/12/25 09:51:50;;;;;;;4.50;3.10;;;-0.90;99.90;-2.30;99334;;;;570954;248;24063;-73
2021/12/25 09:54:19;;;;;;;5.67;2.83;;;-1.00;99.90;-2.20;99342;;;;574200;247;24085;-73
2021/12/25 09:56:48;;;;;;;3.73;2.60;;;-0.90;99.90;-2.10;99349;;;;568425;247;24088;-73
2021/12/25 09:59:19;;;;;;;4.30;2.90;;;-0.90;99.90;-2.10;99352;;;;579130;247;24089;-71
2021/12/25 10:01:43;;;;;;;3.70;2.27;;;-0.90;99.90;-2.10;99351;;;;579229;246;24138;-72
2021/12/25 10:04:11;;;;;;;4.23;2.83;;;-0.90;99.90;-2.10;99346;;;;580248;247;24073;-73
2021/12/25 10:06:39;;;;;;;2.57;2.33;;;-0.90;99.90;-2.10;99349;;;;578438;243;24107;-73
2021/12/25 10:09:19;;;;;;;3.03;2.40;;;-0.90;99.90;-2.10;99355;;;;570677;247;24089;-74
2021/12/25 10:12:03;;;;;;;2.13;1.93;;;-0.90;99.90;-2.00;99356;;;;579717;245;24099;-72
2021/12/25 10:14:31;;;;;;;2.33;1.90;;;-0.80;99.90;-1.90;99349;;;;570359;247;24108;-72
2021/12/25 10:16:59;;;;;;;4.43;2.13;;;-0.70;99.90;-1.80;99337;;;;570561;247;24139;-72
2021/12/25 10:19:31;;;;;;;2.33;1.60;;;-0.60;99.90;-1.80;99338;;;;569541;248;24089;-76
2021/12/25 10:22:06;;;;;;;1.80;1.70;;;-0.50;99.90;-1.70;99353;;;;573705;246;24110;-77
2021/12/25 10:24:41;;;;;;;3.23;2.37;;;-0.50;99.90;-1.80;99342;;;;580505;245;24069;-76
2021/12/25 10:27:08;;;;;;;3.20;2.47;;;-0.60;99.90;-1.80;99349;;;;584216;243;24002;-72
2021/12/25 10:29:37;;;;;;;2.20;1.93;;;-0.70;99.90;-2.00;99356;;;;560025;250;24103;-73
2021/12/25 10:32:20;;;;;;;2.50;1.97;;;-0.80;99.90;-2.10;99345;;;;570056;248;25214;-73
2021/12/25 10:34:48;;;;;;;2.10;1.90;;;-0.80;99.90;-2.10;99344;;;;571713;243;24062;-78
2021/12/25 10:37:16;;;;;;;2.27;2.00;;;-0.90;99.90;-2.20;99348;;;;580226;243;24096;-79
2021/12/25 10:39:44;;;;;;;3.63;2.40;;;-1.00;99.90;-2.30;99348;;;;581370;246;24065;-78
2021/12/25 10:42:16;;;;;;;3.73;2.40;;;-1.20;99.90;-2.30;99354;;;;583859;242;24059;-76
2021/12/25 10:44:47;;;;;;;2.67;2.40;;;-1.20;99.90;-2.40;99348;;;;562152;250;24120;-77
2021/12/25 10:47:18;;;;;;;3.57;2.70;;;-1.20;99.90;-2.40;99345;;;;582139;242;24106;-74
2021/12/25 10:49:46;;;;;;;4.47;3.07;;;-1.30;99.90;-2.50;99347;;;;572686;244;24185;-73
2021/12/25 10:52:28;;;;;;;4.40;2.65;;;-1.40;99.90;-2.50;99346;;;;575423;244;46160;-73
2021/12/25 10:54:57;;;;;;;3.28;2.53;;;-1.40;99.90;-2.60;99347;;;;571353;247;35264;-78
2021/12/25 10:57:34;;;;;;;2.00;1.80;;;-1.50;99.90;-2.60;99351;;;;567485;250;24169;-73
2021/12/25 11:00:07;;;;;;;2.70;1.60;;;-1.50;99.90;-2.70;99338;;;;571518;250;24193;-73
2021/12/25 11:02:45;;;;;;;4.90;2.60;;;-1.60;99.90;-2.70;99348;;;;571346;248;25172;-74
2021/12/25 11:05:37;;;;;;;3.17;2.60;;;-1.60;99.90;-2.70;99349;;;;562789;250;24131;-74
2021/12/25 11:08:10;;;;;;;2.87;2.57;;;-1.60;99.90;-2.80;99348;;;;562909;250;24136;-77
2021/12/25 11:10:44;;;;;;;4.87;3.20;;;-1.70;99.90;-2.80;99352;;;;571312;250;24128;-78
2021/12/25 11:13:30;;;;;;;4.37;3.27;;;-1.70;99.90;-2.90;99360;;;;574173;242;24139;-75
2021/12/25 11:16:02;;;;;;;3.43;3.13;;;-1.80;99.90;-2.90;99362;;;;576029;247;24093;-74
2021/12/25 11:18:23;;;;;;;2.70;2.50;;;-1.80;99.90;-2.90;99370;;;;577760;246;23991;-73
2021/12/25 11:20:51;;;;;;;3.57;3.07;;;-1.80;99.90;-2.90;99372;;;;578045;247;23975;-75
2021/12/25 11:23:19;;;;;;;5.13;3.67;;;-1.80;99.90;-2.90;99370;;;;569824;248;24099;-73
2021/12/25 11:25:46;;;;;;;5.80;4.37;;;-1.80;99.90;-2.90;99373;;;;569175;247;24001;-72
2021/12/25 11:28:18;;;;;;;4.80;3.87;;;-1.80;99.90;-2.90;99368;;;;569830;247;23997;-72
2021/12/25 11:30:45;;;;;;;4.50;3.47;;;-1.70;99.90;-2.90;99361;;;;571698;248;24149;-72
2021/12/25 11:33:13;;;;;;;6.23;3.77;;;-1.80;99.90;-2.90;99368;;;;580066;246;24093;-73
2021/12/25 11:35:41;;;;;;;6.07;3.77;;;-1.80;99.90;-2.90;99363;;;;552646;255;24223;-79
2021/12/25 11:38:12;;;;;;;3.80;3.20;;;-1.80;99.90;-2.90;99365;;;;580822;247;25162;-78
2021/12/25 11:40:38;;;;;;;5.17;3.63;;;-1.80;99.90;-2.90;99374;;;;569155;247;24121;-79
2021/12/25 11:43:05;;;;;;;5.40;3.63;;;-1.80;99.90;-2.90;99381;;;;571918;243;24096;-76
2021/12/25 11:45:34;;;;;;;5.07;3.83;;;-1.80;99.90;-2.90;99385;;;;574068;243;24112;-78
2021/12/25 11:48:01;;;;;;;6.37;4.50;;;-1.80;99.90;-2.90;99375;;;;587140;243;24072;-76
2021/12/25 11:50:32;;;;;;;5.63;4.30;;;-1.80;99.90;-2.80;99382;;;;587212;243;24054;-76
2021/12/25 11:56:04;;;;;;;7.80;4.63;;;-1.60;99.90;-2.60;99377;;;;563658;250;24115;-77
2021/12/25 11:58:43;;;;;;;4.93;3.40;;;-1.60;99.90;-2.50;99379;;;;578980;247;24152;-75
2021/12/25 12:01:21;;;;;;;4.70;3.57;;;-1.50;99.90;-2.40;99385;;;;571252;247;24137;-76
2021/12/25 12:03:56;;;;;;;7.83;4.60;;;-1.30;99.90;-2.30;99380;;;;572538;247;24231;-77
2021/12/25 12:06:45;;;;;;;5.70;4.10;;;-1.10;99.90;-2.20;99391;;;;573217;247;24123;-76
2021/12/25 12:09:18;;;;;;;5.37;4.30;;;-1.10;99.90;-2.20;99390;;;;578243;247;25151;-78
2021/12/25 12:11:46;;;;;;;5.00;3.83;;;-1.10;99.90;-2.20;99379;;;;573258;247;24081;-75
2021/12/25 12:14:20;;;;;;;6.83;4.73;;;-1.10;99.90;-2.30;99379;;;;570945;247;24125;-74
2021/12/25 12:16:50;;;;;;;5.93;4.50;;;-1.20;99.90;-2.40;99376;;;;570775;244;24069;-78
2021/12/25 12:19:35;;;;;;;7.17;5.07;;;-1.20;99.90;-2.40;99371;;;;572482;247;24051;-77
2021/12/25 12:27:57;;;;;;;7.23;4.83;;;-1.40;99.90;-2.60;99378;;;;580805;244;24142;-71
2021/12/25 12:30:32;;;;;;;10.63;5.57;;;-1.50;99.90;-2.60;99383;;;;580438;242;24183;-73
2021/12/25 12:33:00;;;;;;;9.00;6.67;;;-1.60;99.90;-2.70;99382;;;;560755;251;24166;-72
2021/12/25 12:35:34;;;;;;;6.80;5.43;;;-1.60;99.90;-2.70;99392;;;;570280;250;24126;-76
2021/12/25 12:38:48;;;;;;;6.90;5.77;;;-1.60;99.90;-2.70;99388;;;;569295;252;24138;-73
2021/12/25 12:41:39;;;;;;;8.13;4.97;;;-1.70;99.90;-2.80;99386;;;;581378;245;24127;-73